Chandlerville, Illinois
Current Conditions -  °F | °C
As of 8:55 AM on Wednesday 22 Oct 2014 (Local Time) from KIJX Reporting Station
Clear Clear  
Wind Chill: 44°   Ceiling: Unl
Heat Index: 44°   Visibility: 10mi
Dew Point: 41°   Wind: 3mph
Humidity: 88%   Direction: 90°E
Pressure: 30.34"   Gusts: NA
Location:  40.05°N, 90.16°W
Report Text: KIJX 221355Z AUTO 09003KT 10SM CLR 07/05 A3034 RMK AO2 T00680050
Loading
Personal Weather Stations






























Interactive Weather Map
Tropical Storm Tracking
New forecast layout! Learn more

10-Day Weather Forecast

Advertisements
Track Severe Weather on mobile